Time;durP1;ratioP1;P1;durP2;ratioP2;P2;SDS_P1;SDS_P2;PMS_P1;PMS_P2;Temp;Humidity;BMP_temperature;BMP_pressure;BME280_temperature;BME280_humidity;BME280_pressure;Samples;Min_cycle;Max_cycle;Signal;HPM_P1;HPM_P2
2023/03/29 00:01:20;;;;;;;;;;;5.60;99.90;;;;;;4970521;28;19930;-89
2023/03/29 00:03:48;;;;;;;;;;;5.60;99.90;;;;;;4971379;28;19949;-91
2023/03/29 00:06:20;;;;;;;;;;;5.60;99.90;;;;;;4971023;28;20361;-90
2023/03/29 00:08:49;;;;;;;;;;;5.60;99.90;;;;;;4970141;28;20371;-90
2023/03/29 00:11:16;;;;;;;;;;;5.60;99.90;;;;;;4965600;28;19925;-91
2023/03/29 00:13:43;;;;;;;;;;;5.60;99.90;;;;;;4968126;28;19973;-91
2023/03/29 00:16:11;;;;;;;;;;;5.60;99.90;;;;;;4963995;28;19932;-92
2023/03/29 00:18:40;;;;;;;;;;;5.60;99.90;;;;;;4965797;28;19980;-89
2023/03/29 00:21:06;;;;;;;;;;;5.60;99.90;;;;;;4965597;28;19965;-90
2023/03/29 00:23:33;;;;;;;;;;;5.60;99.90;;;;;;4965173;28;19927;-90
2023/03/29 00:26:00;;;;;;;;;;;5.60;99.90;;;;;;4965570;28;19953;-90
2023/03/29 00:28:27;;;;;;;;;;;5.60;99.90;;;;;;4962113;28;19965;-93
2023/03/29 00:30:54;;;;;;;;;;;5.60;99.90;;;;;;4958083;28;19933;-90
2023/03/29 00:33:21;;;;;;;;;;;5.60;99.90;;;;;;4970538;28;19929;-90
2023/03/29 00:35:52;;;;;;;;;;;5.60;99.90;;;;;;4966189;28;20455;-92
2023/03/29 00:38:19;;;;;;;;;;;5.60;99.90;;;;;;4966426;28;20313;-88
2023/03/29 00:40:46;;;;;;;;;;;5.60;99.90;;;;;;4968199;28;19980;-90
2023/03/29 00:43:14;;;;;;;;;;;5.60;99.90;;;;;;4965137;28;20285;-91
2023/03/29 00:45:41;;;;;;;;;;;5.60;99.90;;;;;;4983566;28;20401;-91
2023/03/29 00:48:10;;;;;;;;;;;5.60;99.90;;;;;;4985796;28;19930;-92
2023/03/29 00:50:40;;;;;;;;;;;5.60;99.90;;;;;;4968033;28;20146;-91
2023/03/29 00:53:11;;;;;;;;;;;5.50;99.90;;;;;;4968807;28;19973;-92
2023/03/29 00:55:41;;;;;;;;;;;5.60;99.90;;;;;;4967616;28;20064;-89
2023/03/29 00:58:11;;;;;;;;;;;5.50;99.90;;;;;;4976743;28;19930;-91
2023/03/29 01:00:42;;;;;;;;;;;5.50;99.90;;;;;;4971991;28;19930;-90
2023/03/29 01:03:12;;;;;;;;;;;5.50;99.90;;;;;;4964917;28;20050;-91
2023/03/29 01:05:40;;;;;;;;;;;5.50;99.90;;;;;;4964871;28;19926;-90
2023/03/29 01:08:11;;;;;;;;;;;5.50;99.90;;;;;;4966187;28;19953;-89
2023/03/29 01:10:40;;;;;;;;;;;5.50;99.90;;;;;;4969300;28;19930;-90
2023/03/29 01:13:09;;;;;;;;;;;5.50;99.90;;;;;;4970621;28;19926;-91
2023/03/29 01:15:36;;;;;;;;;;;5.50;99.90;;;;;;4965084;28;19934;-90
2023/03/29 01:18:03;;;;;;;;;;;5.50;99.90;;;;;;4967943;28;20407;-89
2023/03/29 01:20:37;;;;;;;;;;;5.50;99.90;;;;;;4965486;28;19941;-90
2023/03/29 01:23:14;;;;;;;;;;;5.50;99.90;;;;;;4963081;28;20296;-90
2023/03/29 01:25:47;;;;;;;;;;;5.50;99.90;;;;;;4971994;28;19933;-90
2023/03/29 01:28:19;;;;;;;;;;;5.50;99.90;;;;;;4965663;28;19973;-92
2023/03/29 01:30:48;;;;;;;;;;;5.50;99.90;;;;;;4967186;28;19933;-90
2023/03/29 01:33:20;;;;;;;;;;;5.50;99.90;;;;;;4980543;28;19926;-91
2023/03/29 01:35:49;;;;;;;;;;;5.50;99.90;;;;;;4981797;28;19962;-92
2023/03/29 01:38:19;;;;;;;;;;;5.50;99.90;;;;;;4972208;28;19989;-91
2023/03/29 01:40:46;;;;;;;;;;;5.50;99.90;;;;;;4964170;28;19988;-89
2023/03/29 01:43:21;;;;;;;;;;;5.50;99.90;;;;;;4968981;28;19949;-91
2023/03/29 01:45:51;;;;;;;;;;;5.40;99.90;;;;;;4966074;28;20348;-90
2023/03/29 01:48:21;;;;;;;;;;;5.40;99.90;;;;;;4965373;28;19966;-92
2023/03/29 01:50:49;;;;;;;;;;;5.40;99.90;;;;;;4965322;28;20448;-89
2023/03/29 01:53:17;;;;;;;;;;;5.40;99.90;;;;;;4962379;28;19933;-90
2023/03/29 01:55:47;;;;;;;;;;;5.40;99.90;;;;;;4987914;28;19926;-89
2023/03/29 01:58:14;;;;;;;;;;;5.40;99.90;;;;;;4967541;28;19980;-90
2023/03/29 02:00:42;;;;;;;;;;;5.40;99.90;;;;;;4967522;28;19930;-89
2023/03/29 02:03:09;;;;;;;;;;;5.40;99.90;;;;;;4966587;28;19926;-90
2023/03/29 02:05:37;;;;;;;;;;;5.40;99.90;;;;;;4969686;28;19926;-89
2023/03/29 02:08:07;;;;;;;;;;;5.40;99.90;;;;;;4981240;28;22294;-90
2023/03/29 02:10:35;;;;;;;;;;;5.40;99.90;;;;;;4965630;28;19927;-89
2023/03/29 02:13:03;;;;;;;;;;;5.40;99.90;;;;;;4968884;28;19934;-90
2023/03/29 02:15:33;;;;;;;;;;;5.40;99.90;;;;;;4963552;28;20021;-89
2023/03/29 02:18:02;;;;;;;;;;;5.40;99.90;;;;;;4967868;28;19926;-89
2023/03/29 02:20:31;;;;;;;;;;;5.40;99.90;;;;;;4994722;28;19925;-89
2023/03/29 02:23:01;;;;;;;;;;;5.40;99.90;;;;;;4962286;28;19985;-89
2023/03/29 02:25:28;;;;;;;;;;;5.40;99.90;;;;;;4963363;28;21071;-90
2023/03/29 02:27:56;;;;;;;;;;;5.40;99.90;;;;;;4967622;28;20351;-89
2023/03/29 02:30:24;;;;;;;;;;;5.40;99.90;;;;;;4963736;28;19964;-90
2023/03/29 02:32:54;;;;;;;;;;;5.40;99.90;;;;;;4968816;28;19996;-90
2023/03/29 02:35:26;;;;;;;;;;;5.40;99.90;;;;;;4969130;28;20386;-91
2023/03/29 02:37:54;;;;;;;;;;;5.40;99.90;;;;;;4984815;28;19930;-90
2023/03/29 02:40:23;;;;;;;;;;;5.30;99.90;;;;;;4972901;28;20412;-90
2023/03/29 02:42:50;;;;;;;;;;;5.40;99.90;;;;;;4968771;28;19926;-89
2023/03/29 02:45:18;;;;;;;;;;;5.30;99.90;;;;;;4968290;28;19926;-90
2023/03/29 02:47:46;;;;;;;;;;;5.30;99.90;;;;;;4963659;28;19926;-91
2023/03/29 02:50:13;;;;;;;;;;;5.30;99.90;;;;;;4969349;28;20189;-90
2023/03/29 02:52:46;;;;;;;;;;;5.30;99.90;;;;;;4966945;28;19926;-89
2023/03/29 02:55:16;;;;;;;;;;;5.30;99.90;;;;;;4969839;28;19926;-90
2023/03/29 02:57:43;;;;;;;;;;;5.30;99.90;;;;;;4967656;28;19958;-91
2023/03/29 03:00:13;;;;;;;;;;;5.30;99.90;;;;;;4966957;28;20392;-89
2023/03/29 03:02:40;;;;;;;;;;;5.30;99.90;;;;;;4968785;28;19926;-89
2023/03/29 03:05:09;;;;;;;;;;;5.30;99.90;;;;;;4967533;28;20416;-92
2023/03/29 03:07:36;;;;;;;;;;;5.30;99.90;;;;;;4965583;28;20455;-89
2023/03/29 03:10:05;;;;;;;;;;;5.30;99.90;;;;;;4979828;28;19966;-90
2023/03/29 03:12:32;;;;;;;;;;;5.30;99.90;;;;;;4974812;28;20016;-90
2023/03/29 03:15:01;;;;;;;;;;;5.30;99.90;;;;;;4966848;28;19997;-89
2023/03/29 03:17:28;;;;;;;;;;;5.30;99.90;;;;;;4969446;28;19927;-88
2023/03/29 03:19:55;;;;;;;;;;;5.30;99.90;;;;;;4965280;28;20304;-90
2023/03/29 03:22:23;;;;;;;;;;;5.30;99.90;;;;;;4968918;28;19926;-90
2023/03/29 03:24:50;;;;;;;;;;;5.30;99.90;;;;;;4969807;28;20282;-90
2023/03/29 03:27:18;;;;;;;;;;;5.30;99.90;;;;;;4967895;28;19978;-89
2023/03/29 03:29:46;;;;;;;;;;;5.30;99.90;;;;;;4966871;28;19933;-92
2023/03/29 03:32:36;;;;;;;;;;;5.30;99.90;;;;;;4969558;28;19942;-89
2023/03/29 03:35:23;;;;;;;;;;;5.30;99.90;;;;;;4969710;28;20056;-89
2023/03/29 03:37:50;;;;;;;;;;;5.20;99.90;;;;;;4961512;28;20074;-89
2023/03/29 03:40:18;;;;;;;;;;;5.20;99.90;;;;;;4966977;28;20290;-90
2023/03/29 03:42:46;;;;;;;;;;;5.30;99.90;;;;;;4967870;28;19934;-89
2023/03/29 03:45:14;;;;;;;;;;;5.30;99.90;;;;;;4963051;28;19977;-92
2023/03/29 03:47:56;;;;;;;;;;;5.30;99.90;;;;;;4978640;28;19934;-90
2023/03/29 03:50:32;;;;;;;;;;;5.30;99.90;;;;;;4962246;28;20028;-91
2023/03/29 03:52:59;;;;;;;;;;;5.20;99.90;;;;;;4981653;28;20065;-89
2023/03/29 03:55:33;;;;;;;;;;;5.20;99.90;;;;;;4964741;28;19934;-92
2023/03/29 03:58:12;;;;;;;;;;;5.20;99.90;;;;;;4969655;28;19934;-92
2023/03/29 04:00:39;;;;;;;;;;;5.20;99.90;;;;;;4959130;28;19926;-90
2023/03/29 04:03:28;;;;;;;;;;;5.20;99.90;;;;;;4960827;28;19929;-89
2023/03/29 04:05:58;;;;;;;;;;;5.20;99.90;;;;;;4967350;28;20316;-90
2023/03/29 04:08:27;;;;;;;;;;;5.20;99.90;;;;;;4962587;28;19929;-90
2023/03/29 04:11:11;;;;;;;;;;;5.20;99.90;;;;;;4982543;28;20017;-94
2023/03/29 04:13:42;;;;;;;;;;;5.20;99.90;;;;;;4988064;28;20340;-92
2023/03/29 04:16:32;;;;;;;;;;;5.20;99.90;;;;;;4979475;28;19930;-90
2023/03/29 04:19:13;;;;;;;;;;;5.20;99.90;;;;;;4989938;28;19926;-94
2023/03/29 04:21:41;;;;;;;;;;;5.20;99.90;;;;;;4994307;28;19911;-94
2023/03/29 04:24:08;;;;;;;;;;;5.20;99.90;;;;;;4988393;28;19969;-94
2023/03/29 04:26:38;;;;;;;;;;;5.20;99.90;;;;;;4988610;28;19926;-93
2023/03/29 04:29:22;;;;;;;;;;;5.20;99.90;;;;;;4980312;28;20491;-91
2023/03/29 04:31:56;;;;;;;;;;;5.20;99.90;;;;;;4980711;28;19934;-92
2023/03/29 04:34:46;;;;;;;;;;;5.20;99.90;;;;;;4981603;28;19934;-92
2023/03/29 04:37:13;;;;;;;;;;;5.20;99.90;;;;;;4983719;28;19971;-95
2023/03/29 04:39:41;;;;;;;;;;;5.10;99.90;;;;;;4985492;28;19950;-93
2023/03/29 04:42:10;;;;;;;;;;;5.20;99.90;;;;;;4987756;28;19914;-94
2023/03/29 04:44:40;;;;;;;;;;;5.20;99.90;;;;;;4987453;28;19948;-90
2023/03/29 04:47:10;;;;;;;;;;;5.20;99.90;;;;;;4992629;28;20249;-95
2023/03/29 04:49:47;;;;;;;;;;;5.20;99.90;;;;;;4986145;28;20013;-96
2023/03/29 04:52:22;;;;;;;;;;;5.20;99.90;;;;;;5000979;28;19925;-93
2023/03/29 04:54:50;;;;;;;;;;;5.20;99.90;;;;;;5005124;28;20365;-92
2023/03/29 04:57:38;;;;;;;;;;;5.20;99.90;;;;;;4999834;28;19933;-91
2023/03/29 05:00:25;;;;;;;;;;;5.10;99.90;;;;;;4983155;28;19926;-91
2023/03/29 05:03:13;;;;;;;;;;;5.20;99.90;;;;;;4977035;28;19933;-93
2023/03/29 05:05:48;;;;;;;;;;;5.20;99.90;;;;;;4986509;28;19926;-94
2023/03/29 05:08:15;;;;;;;;;;;5.20;99.90;;;;;;4979244;28;19973;-92
2023/03/29 05:11:09;;;;;;;;;;;5.20;99.90;;;;;;4976530;28;19926;-90
2023/03/29 05:13:36;;;;;;;;;;;5.20;99.90;;;;;;4985296;28;19926;-91
2023/03/29 05:16:05;;;;;;;;;;;5.20;99.90;;;;;;4989494;28;19957;-92
2023/03/29 05:18:33;;;;;;;;;;;5.20;99.90;;;;;;4985193;28;19926;-91
2023/03/29 05:21:00;;;;;;;;;;;5.20;99.90;;;;;;4966014;28;19926;-89
2023/03/29 05:23:29;;;;;;;;;;;5.20;99.90;;;;;;4972129;28;19969;-90
2023/03/29 05:26:19;;;;;;;;;;;5.20;99.90;;;;;;4972982;28;19969;-91
2023/03/29 05:28:52;;;;;;;;;;;5.20;99.90;;;;;;4963763;28;19985;-89
2023/03/29 05:31:20;;;;;;;;;;;5.20;99.90;;;;;;4968262;28;20017;-91
2023/03/29 05:33:51;;;;;;;;;;;5.20;99.90;;;;;;4972952;28;19932;-92
2023/03/29 05:36:18;;;;;;;;;;;5.20;99.90;;;;;;4971690;28;19926;-90
2023/03/29 05:38:48;;;;;;;;;;;5.20;99.90;;;;;;4969664;28;20000;-91
2023/03/29 05:41:16;;;;;;;;;;;5.20;99.90;;;;;;4973832;28;19934;-91
2023/03/29 05:44:01;;;;;;;;;;;5.20;99.90;;;;;;4972986;28;19932;-90
2023/03/29 05:46:31;;;;;;;;;;;5.20;99.90;;;;;;4968436;28;19934;-90
2023/03/29 05:49:01;;;;;;;;;;;5.20;99.90;;;;;;4973409;28;19926;-91
2023/03/29 05:51:50;;;;;;;;;;;5.20;99.90;;;;;;4966028;28;20178;-89
2023/03/29 05:54:17;;;;;;;;;;;5.20;99.90;;;;;;4974109;28;20313;-90
2023/03/29 05:56:48;;;;;;;;;;;5.20;99.90;;;;;;4983580;28;20413;-90
2023/03/29 05:59:16;;;;;;;;;;;5.20;99.90;;;;;;4971139;28;19993;-91
2023/03/29 06:01:46;;;;;;;;;;;5.30;99.90;;;;;;4982449;28;19933;-90
2023/03/29 06:04:14;;;;;;;;;;;5.20;99.90;;;;;;4969716;28;19951;-90
2023/03/29 06:06:51;;;;;;;;;;;5.20;99.90;;;;;;4986366;28;19925;-90
2023/03/29 06:09:19;;;;;;;;;;;5.20;99.90;;;;;;4956617;28;19927;-89
2023/03/29 06:11:56;;;;;;;;;;;5.20;99.90;;;;;;4974563;28;19953;-90
2023/03/29 06:14:29;;;;;;;;;;;5.30;99.90;;;;;;4970708;28;19930;-88
2023/03/29 06:17:11;;;;;;;;;;;5.30;99.90;;;;;;4977105;28;19932;-89
2023/03/29 06:19:38;;;;;;;;;;;5.20;99.90;;;;;;4987424;28;19940;-89
2023/03/29 06:22:05;;;;;;;;;;;5.30;99.90;;;;;;4966212;28;19930;-90
2023/03/29 06:24:34;;;;;;;;;;;5.30;99.90;;;;;;4964921;28;19927;-78
2023/03/29 06:27:06;;;;;;;;;;;5.30;99.90;;;;;;4969449;28;19930;-80
2023/03/29 06:29:33;;;;;;;;;;;5.30;99.90;;;;;;4975986;28;20014;-90
2023/03/29 06:32:00;;;;;;;;;;;5.30;99.90;;;;;;4970076;28;20019;-78
2023/03/29 06:34:51;;;;;;;;;;;5.30;99.90;;;;;;4971813;28;19931;-89
2023/03/29 06:37:32;;;;;;;;;;;5.30;99.90;;;;;;4977903;28;19926;-89
2023/03/29 06:40:23;;;;;;;;;;;5.30;99.90;;;;;;4960326;28;20759;-90
2023/03/29 06:42:56;;;;;;;;;;;5.30;99.90;;;;;;4974599;28;19982;-91
2023/03/29 06:45:42;;;;;;;;;;;5.30;99.90;;;;;;4970344;28;20028;-89
2023/03/29 06:48:19;;;;;;;;;;;5.40;99.90;;;;;;4997428;28;19977;-89
2023/03/29 06:50:49;;;;;;;;;;;5.40;99.90;;;;;;4965699;28;20103;-89
2023/03/29 06:53:17;;;;;;;;;;;5.40;99.90;;;;;;4971918;28;19993;-93
2023/03/29 06:55:51;;;;;;;;;;;5.40;99.90;;;;;;4973598;28;20017;-88
2023/03/29 06:58:37;;;;;;;;;;;5.40;99.90;;;;;;4976412;28;20001;-92
2023/03/29 07:01:12;;;;;;;;;;;5.40;99.90;;;;;;4981540;28;19926;-90
2023/03/29 07:03:56;;;;;;;;;;;5.40;99.90;;;;;;4987340;28;19954;-92
2023/03/29 07:06:31;;;;;;;;;;;5.40;99.90;;;;;;4993620;28;19958;-89
2023/03/29 07:09:00;;;;;;;;;;;5.40;99.90;;;;;;4975617;28;20404;-89
2023/03/29 07:11:49;;;;;;;;;;;5.40;99.90;;;;;;4981909;28;19949;-93
2023/03/29 07:14:24;;;;;;;;;;;5.40;99.90;;;;;;5010627;28;19950;-89
2023/03/29 07:16:52;;;;;;;;;;;5.50;99.90;;;;;;4981518;28;19980;-89
2023/03/29 07:19:28;;;;;;;;;;;5.50;99.90;;;;;;4968956;28;20371;-91
2023/03/29 07:21:57;;;;;;;;;;;5.50;99.90;;;;;;4973319;28;19926;-91
2023/03/29 07:24:43;;;;;;;;;;;5.50;99.90;;;;;;4978127;28;19984;-88
2023/03/29 07:27:11;;;;;;;;;;;5.60;99.90;;;;;;4963862;28;19931;-89
2023/03/29 07:29:38;;;;;;;;;;;5.60;99.90;;;;;;4964394;28;19937;-91
2023/03/29 07:32:05;;;;;;;;;;;5.60;99.90;;;;;;4966246;28;19930;-90
2023/03/29 07:34:41;;;;;;;;;;;5.50;99.90;;;;;;4973665;28;20020;-90
2023/03/29 07:37:13;;;;;;;;;;;5.60;99.90;;;;;;4971753;28;19933;-88
2023/03/29 07:39:42;;;;;;;;;;;5.60;99.90;;;;;;4967996;28;19930;-92
2023/03/29 07:42:32;;;;;;;;;;;5.60;99.90;;;;;;4966263;28;19930;-93
2023/03/29 07:45:00;;;;;;;;;;;5.60;99.90;;;;;;4967535;28;19933;-89
2023/03/29 07:47:32;;;;;;;;;;;5.60;99.90;;;;;;4973861;28;19932;-91
2023/03/29 07:49:59;;;;;;;;;;;5.60;99.90;;;;;;4967891;28;19934;-89
2023/03/29 07:52:28;;;;;;;;;;;5.70;99.90;;;;;;4970430;28;19931;-91
2023/03/29 07:54:56;;;;;;;;;;;5.70;99.90;;;;;;4971909;28;20301;-93
2023/03/29 07:57:43;;;;;;;;;;;5.70;99.90;;;;;;4964496;28;19927;-89
2023/03/29 08:00:13;;;;;;;;;;;5.70;99.90;;;;;;4963679;28;19941;-92
2023/03/29 08:02:44;;;;;;;;;;;5.80;99.90;;;;;;4987160;28;19934;-89
2023/03/29 08:05:12;;;;;;;;;;;5.80;99.90;;;;;;4976099;28;20298;-89
2023/03/29 08:07:49;;;;;;;;;;;5.80;99.90;;;;;;4966137;28;19985;-89
2023/03/29 08:10:25;;;;;;;;;;;5.80;99.90;;;;;;4990241;28;19970;-91
2023/03/29 08:13:24;;;;;;;;;;;5.80;99.90;;;;;;4929021;28;19993;-89
2023/03/29 08:16:11;;;;;;;;;;;5.90;99.90;;;;;;4971491;28;19927;-92
2023/03/29 08:18:44;;;;;;;;;;;5.90;99.90;;;;;;4970857;28;19934;-88
2023/03/29 08:21:13;;;;;;;;;;;5.90;99.90;;;;;;4971676;28;20467;-89
2023/03/29 08:23:44;;;;;;;;;;;5.90;99.90;;;;;;4982145;28;19932;-90
2023/03/29 08:26:18;;;;;;;;;;;5.90;99.90;;;;;;4972076;28;19926;-90
2023/03/29 08:28:46;;;;;;;;;;;5.90;99.90;;;;;;4993575;28;19945;-89
2023/03/29 08:31:15;;;;;;;;;;;5.90;99.90;;;;;;4967992;28;19926;-89
2023/03/29 08:33:44;;;;;;;;;;;6.00;99.90;;;;;;4967450;28;19926;-89
2023/03/29 08:36:37;;;;;;;;;;;6.00;99.90;;;;;;4945176;28;19945;-91
2023/03/29 08:39:12;;;;;;;;;;;6.10;99.90;;;;;;4975294;28;19926;-91
2023/03/29 08:41:48;;;;;;;;;;;6.10;99.90;;;;;;4971768;28;19930;-88
2023/03/29 08:44:21;;;;;;;;;;;6.10;99.90;;;;;;4962224;28;20189;-90
2023/03/29 08:46:58;;;;;;;;;;;6.20;99.90;;;;;;4969614;28;19926;-91
2023/03/29 08:49:31;;;;;;;;;;;6.20;99.90;;;;;;4967275;28;19926;-90
2023/03/29 08:52:01;;;;;;;;;;;6.20;99.90;;;;;;4968707;28;20195;-90
2023/03/29 08:54:33;;;;;;;;;;;6.20;99.90;;;;;;4981550;28;19981;-89
2023/03/29 08:57:22;;;;;;;;;;;6.30;99.90;;;;;;4971235;28;19926;-91
2023/03/29 08:59:57;;;;;;;;;;;6.30;99.90;;;;;;5004790;28;20021;-90
2023/03/29 09:02:25;;;;;;;;;;;6.30;99.90;;;;;;4987376;28;19962;-91
2023/03/29 09:04:59;;;;;;;;;;;6.30;99.90;;;;;;4981088;28;19988;-91
2023/03/29 09:07:52;;;;;;;;;;;6.30;99.90;;;;;;4978906;28;20417;-90
2023/03/29 09:10:24;;;;;;;;;;;6.50;99.90;;;;;;4966235;28;19937;-89
2023/03/29 09:13:00;;;;;;;;;;;6.40;99.90;;;;;;4972769;28;19926;-90
2023/03/29 09:15:28;;;;;;;;;;;6.50;99.90;;;;;;4971994;28;19985;-90
2023/03/29 09:18:08;;;;;;;;;;;6.50;99.90;;;;;;4972766;28;20102;-91
2023/03/29 09:20:39;;;;;;;;;;;6.50;99.90;;;;;;4965972;28;19989;-89
2023/03/29 09:23:22;;;;;;;;;;;6.60;99.90;;;;;;4969391;28;19930;-90
2023/03/29 09:26:12;;;;;;;;;;;6.60;99.90;;;;;;4972753;28;20153;-89
2023/03/29 09:29:03;;;;;;;;;;;6.60;99.90;;;;;;4966094;28;19957;-88
2023/03/29 09:31:31;;;;;;;;;;;6.60;99.90;;;;;;4965477;28;19930;-90
2023/03/29 09:33:59;;;;;;;;;;;6.70;99.90;;;;;;4967019;28;19989;-90
2023/03/29 09:36:42;;;;;;;;;;;6.70;99.90;;;;;;4984223;28;19933;-89
2023/03/29 09:39:09;;;;;;;;;;;6.70;99.90;;;;;;4966117;28;19933;-93
2023/03/29 09:41:40;;;;;;;;;;;6.80;99.90;;;;;;4974093;28;20028;-86
2023/03/29 09:44:08;;;;;;;;;;;6.90;99.90;;;;;;4970924;28;20020;-83
2023/03/29 09:46:39;;;;;;;;;;;6.90;99.90;;;;;;4969403;28;19934;-84
2023/03/29 09:49:10;;;;;;;;;;;7.00;99.90;;;;;;4980807;28;19980;-91
2023/03/29 09:51:37;;;;;;;;;;;7.00;99.90;;;;;;4987095;28;19930;-91
2023/03/29 09:54:04;;;;;;;;;;;7.00;99.90;;;;;;4966589;28;19926;-91
2023/03/29 09:56:56;;;;;;;;;;;7.00;99.90;;;;;;4961518;28;20021;-92
2023/03/29 09:59:24;;;;;;;;;;;7.00;99.90;;;;;;4969061;28;19956;-92
2023/03/29 10:01:51;;;;;;;;;;;7.10;99.90;;;;;;4959269;28;19930;-91
2023/03/29 10:04:21;;;;;;;;;;;7.10;99.90;;;;;;4975517;28;19930;-90
2023/03/29 10:06:52;;;;;;;;;;;7.10;99.90;;;;;;4966950;28;19930;-92
2023/03/29 10:09:20;;;;;;;;;;;7.10;99.90;;;;;;4971291;28;19929;-90
2023/03/29 10:11:51;;;;;;;;;;;7.20;99.90;;;;;;4965902;28;20415;-91
2023/03/29 10:14:21;;;;;;;;;;;7.20;99.90;;;;;;4972728;28;19984;-93
2023/03/29 10:16:54;;;;;;;;;;;7.30;99.90;;;;;;4969602;28;19938;-90
2023/03/29 10:19:22;;;;;;;;;;;7.30;99.90;;;;;;4967782;28;19962;-89
2023/03/29 10:21:50;;;;;;;;;;;7.30;99.90;;;;;;4973125;28;19926;-90
2023/03/29 10:24:21;;;;;;;;;;;7.40;99.90;;;;;;4972766;28;20321;-92
2023/03/29 10:26:52;;;;;;;;;;;7.40;99.90;;;;;;4971206;28;20436;-88
2023/03/29 10:29:20;;;;;;;;;;;7.40;99.90;;;;;;4963729;28;19926;-89
2023/03/29 10:31:47;;;;;;;;;;;7.50;99.90;;;;;;4968594;28;20025;-89
2023/03/29 10:34:15;;;;;;;;;;;7.50;99.90;;;;;;4965664;28;20639;-89
2023/03/29 10:36:53;;;;;;;;;;;7.50;99.90;;;;;;4970845;28;19937;-89
2023/03/29 10:39:20;;;;;;;;;;;7.50;99.90;;;;;;4983172;28;20411;-89
2023/03/29 10:41:51;;;;;;;;;;;7.60;99.90;;;;;;4967428;28;19996;-89
2023/03/29 10:44:28;;;;;;;;;;;7.70;99.90;;;;;;4976998;28;19930;-89
2023/03/29 10:46:55;;;;;;;;;;;7.70;99.90;;;;;;4968005;28;19938;-91
2023/03/29 10:49:24;;;;;;;;;;;7.80;99.90;;;;;;4967486;28;19993;-90
2023/03/29 10:51:52;;;;;;;;;;;7.80;99.90;;;;;;4962717;28;20451;-90
2023/03/29 10:54:20;;;;;;;;;;;7.80;99.90;;;;;;4982514;28;20292;-90
2023/03/29 10:56:49;;;;;;;;;;;7.90;99.90;;;;;;4968777;28;19969;-90
2023/03/29 10:59:31;;;;;;;;;;;7.90;99.90;;;;;;4970723;28;20441;-89
2023/03/29 11:02:13;;;;;;;;;;;8.00;99.90;;;;;;4971630;28;19930;-91
2023/03/29 11:04:42;;;;;;;;;;;8.00;99.90;;;;;;4964813;28;19926;-90
2023/03/29 11:07:36;;;;;;;;;;;8.00;99.90;;;;;;4969564;28;19941;-90
2023/03/29 11:10:15;;;;;;;;;;;8.10;99.90;;;;;;4937569;28;20220;-92
2023/03/29 11:12:47;;;;;;;;;;;8.20;99.90;;;;;;4977500;28;19957;-89
2023/03/29 11:15:22;;;;;;;;;;;8.20;99.90;;;;;;4965631;28;19981;-89
2023/03/29 11:17:55;;;;;;;;;;;8.20;99.90;;;;;;4989981;28;20454;-89
2023/03/29 11:20:27;;;;;;;;;;;8.30;99.90;;;;;;4977851;28;20367;-92
2023/03/29 11:22:59;;;;;;;;;;;8.30;99.90;;;;;;4969755;28;19993;-90
2023/03/29 11:25:32;;;;;;;;;;;8.20;99.90;;;;;;4973354;28;19929;-92
2023/03/29 11:28:01;;;;;;;;;;;8.40;99.90;;;;;;4970743;28;19934;-90
2023/03/29 11:30:35;;;;;;;;;;;8.40;99.90;;;;;;4962298;28;19926;-89
2023/03/29 11:33:07;;;;;;;;;;;8.50;99.90;;;;;;4972562;28;19937;-89
2023/03/29 11:35:48;;;;;;;;;;;8.40;99.90;;;;;;4972272;28;19926;-91
2023/03/29 11:38:20;;;;;;;;;;;8.40;99.90;;;;;;4984091;28;19926;-90
2023/03/29 11:40:52;;;;;;;;;;;8.50;99.90;;;;;;4972606;28;20028;-89
2023/03/29 11:43:21;;;;;;;;;;;8.60;99.90;;;;;;4959162;28;20646;-90
2023/03/29 11:45:52;;;;;;;;;;;8.70;99.90;;;;;;4967998;28;20049;-90
2023/03/29 11:48:22;;;;;;;;;;;8.70;99.90;;;;;;4959549;28;19941;-90
2023/03/29 11:50:52;;;;;;;;;;;8.90;99.90;;;;;;4968188;28;20467;-91
2023/03/29 11:53:21;;;;;;;;;;;8.90;99.90;;;;;;4963272;28;19930;-92
2023/03/29 11:55:50;;;;;;;;;;;9.00;99.90;;;;;;4962008;28;19936;-91
2023/03/29 11:58:21;;;;;;;;;;;9.10;99.90;;;;;;4962979;28;19993;-91
2023/03/29 12:00:49;;;;;;;;;;;9.20;99.90;;;;;;4964482;28;20526;-89
2023/03/29 12:03:24;;;;;;;;;;;9.20;99.90;;;;;;4964822;28;19933;-92
2023/03/29 12:05:55;;;;;;;;;;;9.20;99.90;;;;;;4965939;28;19926;-92
2023/03/29 12:08:25;;;;;;;;;;;9.20;99.90;;;;;;4959521;28;19931;-91
2023/03/29 12:10:56;;;;;;;;;;;9.30;99.90;;;;;;4967958;28;19934;-89
2023/03/29 12:13:26;;;;;;;;;;;9.30;99.90;;;;;;4962971;28;19988;-93
2023/03/29 12:15:56;;;;;;;;;;;9.30;99.90;;;;;;4969910;28;19929;-87
2023/03/29 12:18:27;;;;;;;;;;;9.40;99.90;;;;;;4965036;28;19930;-91
2023/03/29 12:20:57;;;;;;;;;;;9.50;99.90;;;;;;4976768;28;19970;-91
2023/03/29 12:23:25;;;;;;;;;;;9.60;99.90;;;;;;4972923;28;19927;-90
2023/03/29 12:25:53;;;;;;;;;;;9.60;99.90;;;;;;4963590;28;19980;-92
2023/03/29 12:28:26;;;;;;;;;;;9.60;99.90;;;;;;4968236;28;20293;-91
2023/03/29 12:31:01;;;;;;;;;;;9.60;99.90;;;;;;4966842;28;19926;-90
2023/03/29 12:33:40;;;;;;;;;;;9.70;99.90;;;;;;4974684;28;19992;-91
2023/03/29 12:36:54;;;;;;;;;;;9.70;99.90;;;;;;4973648;28;20666;-94
2023/03/29 12:39:39;;;;;;;;;;;9.80;99.90;;;;;;4981901;28;19937;-93
2023/03/29 12:42:25;;;;;;;;;;;9.80;99.90;;;;;;4981898;28;19937;-95
2023/03/29 12:45:14;;;;;;;;;;;9.80;99.90;;;;;;4957047;28;20022;-93
2023/03/29 12:47:43;;;;;;;;;;;9.90;99.90;;;;;;4965796;28;19926;-93
2023/03/29 12:50:18;;;;;;;;;;;9.80;99.90;;;;;;4967124;28;19926;-91
2023/03/29 12:52:45;;;;;;;;;;;9.80;99.90;;;;;;4966214;28;19926;-91
2023/03/29 12:55:28;;;;;;;;;;;9.80;99.90;;;;;;4975112;28;19926;-92
2023/03/29 12:58:02;;;;;;;;;;;9.90;99.90;;;;;;4977899;28;19937;-91
2023/03/29 13:00:32;;;;;;;;;;;10.00;99.90;;;;;;4971822;28;19940;-91
2023/03/29 13:03:00;;;;;;;;;;;10.00;99.90;;;;;;4971274;28;19977;-91
2023/03/29 13:05:30;;;;;;;;;;;10.00;99.90;;;;;;4972128;28;19972;-92
2023/03/29 13:07:57;;;;;;;;;;;10.00;99.90;;;;;;4972453;28;19937;-93
2023/03/29 13:10:30;;;;;;;;;;;10.10;99.90;;;;;;4976625;28;19934;-92
2023/03/29 13:12:57;;;;;;;;;;;10.10;99.90;;;;;;4972460;28;19926;-94
2023/03/29 13:15:25;;;;;;;;;;;10.10;99.90;;;;;;4971250;28;19930;-91
2023/03/29 13:17:58;;;;;;;;;;;10.10;99.90;;;;;;4972080;28;19932;-91
2023/03/29 13:20:36;;;;;;;;;;;10.20;99.90;;;;;;4979788;28;19946;-93
2023/03/29 13:23:11;;;;;;;;;;;10.20;99.90;;;;;;4975652;28;19966;-90
2023/03/29 13:25:47;;;;;;;;;;;10.20;99.90;;;;;;4975678;28;19981;-92
2023/03/29 13:28:18;;;;;;;;;;;10.30;99.90;;;;;;5002317;28;19976;-91
2023/03/29 13:30:51;;;;;;;;;;;10.30;99.90;;;;;;4973006;28;19925;-93
2023/03/29 13:33:24;;;;;;;;;;;10.30;99.90;;;;;;4969961;28;20401;-93
2023/03/29 13:35:56;;;;;;;;;;;10.30;99.90;;;;;;4976195;28;20262;-92
2023/03/29 13:38:25;;;;;;;;;;;10.30;99.90;;;;;;4975936;28;19925;-91
2023/03/29 13:41:00;;;;;;;;;;;10.30;99.90;;;;;;4976523;28;20427;-91
2023/03/29 13:43:31;;;;;;;;;;;10.30;99.90;;;;;;4969841;28;19933;-94
2023/03/29 13:46:19;;;;;;;;;;;10.20;99.90;;;;;;4969167;28;19980;-91
2023/03/29 13:48:49;;;;;;;;;;;10.20;99.90;;;;;;4961456;28;20343;-94
2023/03/29 13:51:23;;;;;;;;;;;10.20;99.90;;;;;;4970874;28;19934;-91
2023/03/29 13:53:52;;;;;;;;;;;10.20;99.90;;;;;;4968002;28;20291;-92
2023/03/29 13:56:23;;;;;;;;;;;10.30;99.90;;;;;;4967739;28;19934;-91
2023/03/29 13:58:51;;;;;;;;;;;10.40;99.90;;;;;;4966721;28;19930;-92
2023/03/29 14:01:23;;;;;;;;;;;10.30;99.90;;;;;;4969837;28;20385;-91
2023/03/29 14:03:51;;;;;;;;;;;10.30;99.90;;;;;;4967261;28;19933;-92
2023/03/29 14:06:24;;;;;;;;;;;10.40;99.90;;;;;;4968028;28;19964;-93
2023/03/29 14:08:53;;;;;;;;;;;10.40;99.90;;;;;;4969550;28;19937;-92
2023/03/29 14:11:22;;;;;;;;;;;10.40;99.90;;;;;;4976443;28;19926;-92
2023/03/29 14:13:51;;;;;;;;;;;10.30;99.90;;;;;;4964557;28;19935;-92
2023/03/29 14:16:18;;;;;;;;;;;10.30;99.90;;;;;;4961833;28;19973;-91
2023/03/29 14:18:49;;;;;;;;;;;10.30;99.90;;;;;;4972586;28;19950;-93
2023/03/29 14:21:17;;;;;;;;;;;10.30;99.90;;;;;;4968387;28;19973;-92
2023/03/29 14:23:45;;;;;;;;;;;10.40;99.90;;;;;;4965794;28;19961;-93
2023/03/29 14:26:17;;;;;;;;;;;10.50;99.90;;;;;;4983149;28;19927;-95
2023/03/29 14:28:45;;;;;;;;;;;10.40;99.90;;;;;;4969668;28;20107;-91
2023/03/29 14:31:16;;;;;;;;;;;10.40;99.90;;;;;;4966176;28;19938;-92
2023/03/29 14:33:43;;;;;;;;;;;10.40;99.90;;;;;;4971123;28;19926;-91
2023/03/29 14:36:12;;;;;;;;;;;10.40;99.90;;;;;;4968766;28;19934;-91
2023/03/29 14:38:39;;;;;;;;;;;10.40;99.90;;;;;;4983552;28;19934;-91
2023/03/29 14:41:07;;;;;;;;;;;10.40;99.90;;;;;;4969379;28;20009;-93
2023/03/29 14:43:35;;;;;;;;;;;10.40;99.90;;;;;;4968261;28;19927;-94
2023/03/29 14:46:03;;;;;;;;;;;10.40;99.90;;;;;;4971162;28;19933;-91
2023/03/29 14:48:32;;;;;;;;;;;10.40;99.90;;;;;;4965133;28;20430;-90
2023/03/29 14:50:59;;;;;;;;;;;10.50;99.90;;;;;;4985921;28;19926;-91
2023/03/29 14:53:27;;;;;;;;;;;10.50;99.90;;;;;;4967443;28;19926;-91
2023/03/29 14:55:55;;;;;;;;;;;10.50;99.90;;;;;;4968749;28;19926;-90
2023/03/29 14:58:23;;;;;;;;;;;10.40;99.90;;;;;;4964485;28;19937;-90